Terminal Aerodrome Forecast
Issued by NWS Wilmington, OH

Current Version | Previous Version | Text Only | Print | Product List | Glossary Off
Versions: 1 2 3 4 5 6 7 8 9 10 11 12 13 14 15 16 17 18 19

000
FTUS41 KILN 042352
TAFCMH
TAF
KCMH 042352Z 0500/0524 14006KT 4SM -RA BR OVC025
     FM050200 14006KT 4SM -RA BR OVC012
     FM050300 16006KT 4SM -RASN BR OVC006
     FM050500 28010KT P6SM OVC006
     FM051400 29006KT P6SM BKN011
     FM051800 VRB04KT P6SM SCT015 BKN250=

USA.gov is the U.S. government's official web portal to all federal, state and local government web resources and services.